Cedar Bluff, AL

9:38 PM CDT on June 01, 2015 (GMT -0500)
The Ridges | | Change Station
CLOSE
Current Station
Personal Weather Station
Location: Cedar Bluff, AL
Elevation: 639 ft
Nearby Weather Stations

Elev 639 ft 34.29 °N, 85.63 °W | Updated 45 seconds ago

Overcast
Overcast
68.9 °F
Feels Like 68.9 °F
N
0.6
Wind Variable Wind from NE
Gusts 1.6 mph

Today
High -- | Low -- °F
--% Chance of Precip.
Yesterday
High -- | Low -- °F
Precip. -- in
5:31 AM 7:48 PM
Full, 100% visible
Pressure 30.05 in
Visibility 10.0 miles
Clouds Scattered Clouds 2800 ft
Overcast 3500 ft
Dew Point 10 °F
Humidity 10%
Rainfall 0.25 in
Snow Depth Not available.
UV 0 out of 12
Pollen .80 out of 12
Air Quality Not available.
Flu Activity Sporadic
METAR K4A9 020215Z AUTO 00000KT 10SM SCT028 OVC035 21/17 A3005 RMK AO2 LTG DSNT S AND SW

More Conditions Fewer Conditions

Pressure 30.05 in
Visibility 10.0 miles
Clouds Scattered Clouds 2800 ft
Overcast 3500 ft
Dew Point 10 °F
Humidity 10%
Rainfall 0.25 in
Snow Depth Not available.
UV 0 out of 12
Pollen .80 out of 12
Air Quality Not available.
Flu Activity Sporadic
METAR K4A9 020215Z AUTO 00000KT 10SM SCT028 OVC035 21/17 A3005 RMK AO2 LTG DSNT S AND SW

More Conditions Fewer Conditions

10-Day Weather Forecast

Almanac

Astronomy

Jun. 01, 2015 Rise Set
Actual Time
Civil Twilight
Nautical Twilight
Astronomical Twilight
Moon
Length of Visible Light
Length of Day
Tomorrow will be .
, % of the Moon is Illuminated

Today's Extremes

State Highs State Lows

Community

WunderPhotos

Upload Photos

1,825,858 photos uploaded!

WunderBlogs® & News

Nearby

Air Quality

  Air Quality AQ Index Pollutant
Not available.

Snow Depth

Station Depth Elevation

Earthquake Activity

City Distance Mag. Time & Date
Minimum magnitude displayed is 2.5.

Coastal Water Temperatures

Place Temperature

Stations

Nearby Weather Stations

Station Location Temp. Windchill Dew Point Humidity Wind Precip. Elev Updated Type